KOLZ

Oelwein Municipal Airport

Oelwein, Iowa, USA
METAR KOLZ 201655Z AUTO 34023G35KT BKN050 BKN055 05/M07 A3014 RMK AO2 PWINO
Observed Flight Rules
Oct-20 @ 16:55 UTC (17 minutes ago)
Wind Clouds
340° at 23 knots
 Gusting to 35 knots
  • Broken at 5,000' AGL
  • Broken at 5,500' AGL
Temperatures Readings
Current 5°C / 41°F
Dewpoint -7°C / 19°F
Humidity 42%
Altimeter 30.14" Hg
Pressure 1021 hPa
Elevation 328
METAR KOLZ 201655Z AUTO 34023G35KT BKN050 BKN055 05/M07 A3014 RMK AO2 PWINO
Observed Flight Rules
Oct-20 @ 16:55 UTC
(17 minutes ago)
Wind
340° at 23 knots
 Gusting to 35 knots
Clouds
  • Broken at 5,000' AGL
  • Broken at 5,500' AGL
Temperature Dewpoint
5°C / 41°F -7°C / 19°F
Humidity Altimeter Pressure
42% 30.14" Hg 1021 hPa